Airfield :







YOU CAN JOIN US ON...

 
LOGIN :

Register | Disclaimer

   EN    FR    IT 

 









Legend :    VFR   Marginal VFR   IFR   Intensive IFR   Very Intensive IFR
Visi :
Ceiling :
>= 8 km
>= 3000ft
5 to 8 km
1000 to 3000 ft
1500m to 5 km
500 to 1000 ft
800 to 1500m
200 to 500 ft
< 800m
< 200 ft
Symbols :   Thunderstorms  Fog  Heavy snow  Heavy precipitations  Wind > 20 kt






- Airport Elevation : 180 ft
- IATA code : YZV


CYZV - Sept-Iles

CURRENT METAR :
  • 240900Z 29003KT 270V010 15SM FEW040 M14/M19 A3040 RMK SC1 SC TR SLP301

EXPIRED METARs :
  • 240800Z 31008KT 15SM FEW040 M10/M16 A3034 RMK SC1 SC TR SLP281
  • 240700Z 32008KT 15SM FEW040 M08/M16 A3032 RMK SC1 SC TR SLP272

TAF TAF CYZV
Valid from the 24 at 06:00 until the 25 at 06:00 UTC


240538Z 2406/2506 31008KT P6SM SCT030
BECMG 2416/2418 26008KT
FM250300 VRB03KT P6SM SKC
PROB30 2503/2506 2SM BR RMK NXT FCST BY 241200Z



MET'MAP, your aeronautical weather chart ! - Copyright ORBIFLY December 2007 - Disclaimer

ORBIFLY MET'MAP TEAM :

Programming & Development : Alexandra Zaïnal
Concept & original design : Baudouin d'Aumeries
Assistance for programming : Marc-Olivier Méhu
Technical & hardware support : Manuel Goepfert

Contact : metmap@orbifly.com




SOURCES & CREDITS :

   NOAA